Del Norte, CO

12:27 AM MDT on September 04, 2015 (GMT -0600)
North West of | | Change Station
CLOSE
Current Station
Personal Weather Station
Location: MONTE VISTA, CO
Elevation: 7720 ft
Nearby Weather Stations

Elev 7720 ft 37.65 °N, 106.18 °W | Updated 3 seconds ago

Partly Cloudy
Partly Cloudy
49.2 °F
Feels Like 49 °F
N
1.0
Wind Variable Wind from West
Gusts 5.0 mph

Today
High -- | Low -- °F
--% Chance of Precip.
Yesterday
High -- | Low -- °F
Precip. -- in
6:38 AM 7:30 PM
Waning Gibbous, 62% visible
Pressure 29.96 in
Visibility 10.0 miles
Clouds Clear
Windchill 49 °F
Dew Point 44 °F
Humidity 83%
Rainfall 0.00 in
Snow Depth Not available.
UV 0 out of 12
Pollen 10.80 out of 12
Air Quality Not available.
Flu Activity Not available.
METAR KALS 040552Z AUTO 12004KT 10SM CLR 11/08 A3020 RMK AO2 SLP143 T01060078 10189 20100 50000
Pressure 29.96 in
Visibility 10.0 miles
Clouds Clear
Windchill 49 °F
Dew Point 44 °F
Humidity 83%
Rainfall 0.00 in
Snow Depth Not available.
UV 0 out of 12
Pollen 10.80 out of 12
Air Quality Not available.
Flu Activity Not available.
METAR KALS 040552Z AUTO 12004KT 10SM CLR 11/08 A3020 RMK AO2 SLP143 T01060078 10189 20100 50000

10-Day Weather Forecast

×

Almanac

Astronomy

Sep. 04, 2015 Rise Set
Actual Time
Civil Twilight
Nautical Twilight
Astronomical Twilight
Moon
Length of Visible Light
Length of Day
Tomorrow will be .
, % of the Moon is Illuminated

Today's Extremes

State Highs State Lows

Community

WunderPhotos

Upload Photos

1,852,132 photos uploaded!

WunderBlogs® & News

Nearby

Air Quality

  Air Quality AQ Index Pollutant
Not available.

Snow Depth

Station Depth Elevation

Earthquake Activity

City Distance Mag. Time & Date
Minimum magnitude displayed is 2.5.

Coastal Water Temperatures

Place Temperature

Stations

Nearby Weather Stations

Station Location Temp. Windchill Dew Point Humidity Wind Precip. Elev Updated Type